createdAt,value
2018-07-23T04:00:16.533Z,15.90
2018-07-23T04:02:53.751Z,16.00
2018-07-23T04:05:26.021Z,16.00
2018-07-23T04:07:58.352Z,16.00
2018-07-23T04:10:36.503Z,16.00
2018-07-23T04:13:07.887Z,16.00
2018-07-23T04:15:38.135Z,16.00
2018-07-23T04:18:09.087Z,16.10
2018-07-23T04:20:39.682Z,16.00
2018-07-23T04:23:10.241Z,16.00
2018-07-23T04:25:40.552Z,16.10
2018-07-23T04:28:11.323Z,16.10
2018-07-23T04:30:41.700Z,16.10
2018-07-23T04:33:12.683Z,16.00
2018-07-23T04:35:43.639Z,16.10
2018-07-23T04:38:14.731Z,16.10
2018-07-23T04:40:45.543Z,16.20
2018-07-23T04:43:16.810Z,16.20
2018-07-23T04:45:47.955Z,16.10
2018-07-23T04:48:19.245Z,16.10
2018-07-23T04:50:52.319Z,16.00
2018-07-23T04:53:23.577Z,16.00
2018-07-23T04:55:53.793Z,16.00
2018-07-23T04:58:24.206Z,16.00
2018-07-23T05:00:54.638Z,16.00
2018-07-23T05:03:24.376Z,16.10
2018-07-23T05:05:57.548Z,16.20
2018-07-23T05:08:27.964Z,16.20
2018-07-23T05:10:59.732Z,16.20
2018-07-23T05:13:30.686Z,16.20
2018-07-23T05:16:01.325Z,16.30
2018-07-23T05:18:34.750Z,16.30
2018-07-23T05:21:05.191Z,16.40
2018-07-23T05:23:44.728Z,16.40
2018-07-23T05:26:17.559Z,16.40
2018-07-23T05:28:50.263Z,16.50
2018-07-23T05:31:22.403Z,16.50
2018-07-23T05:33:54.481Z,16.40
2018-07-23T05:36:26.199Z,16.40
2018-07-23T05:38:58.899Z,16.50
2018-07-23T05:41:32.145Z,16.40
2018-07-23T05:58:04.381Z,16.80
2018-07-23T06:00:34.697Z,17.00
2018-07-23T06:03:06.388Z,17.10
2018-07-23T06:05:37.371Z,17.20
2018-07-23T06:08:09.149Z,17.30
2018-07-23T06:10:38.862Z,17.40
2018-07-23T06:13:09.125Z,17.50
2018-07-23T06:15:40.509Z,17.70
2018-07-23T06:18:10.841Z,18.00
2018-07-23T06:20:40.371Z,18.10
2018-07-23T06:23:09.775Z,18.20
2018-07-23T06:25:40.173Z,18.40
2018-07-23T06:28:10.663Z,18.20
2018-07-23T06:30:40.988Z,18.30
2018-07-23T06:33:11.216Z,18.20
2018-07-23T06:35:41.661Z,18.10
2018-07-23T06:38:12.504Z,18.00
2018-07-23T06:40:42.780Z,17.80
2018-07-23T06:43:13.802Z,17.90
2018-07-23T06:45:42.830Z,17.70
2018-07-23T06:48:13.069Z,17.60
2018-07-23T06:50:43.391Z,17.50
2018-07-23T06:53:12.981Z,17.60
2018-07-23T06:55:44.269Z,17.50
2018-07-23T06:58:14.505Z,17.60
2018-07-23T07:00:44.312Z,17.60
2018-07-23T07:03:14.660Z,17.60
2018-07-23T07:05:45.067Z,17.60
2018-07-23T07:08:15.435Z,17.60
2018-07-23T07:10:44.905Z,17.70
2018-07-23T07:13:15.426Z,17.80
2018-07-23T07:15:45.795Z,17.80
2018-07-23T07:18:15.940Z,17.80
2018-07-23T07:20:45.645Z,17.80
2018-07-23T07:23:15.079Z,17.70
2018-07-23T07:25:45.421Z,17.70
2018-07-23T07:28:15.667Z,17.70
2018-07-23T07:30:45.340Z,17.70
2018-07-23T07:33:14.492Z,17.90
2018-07-23T07:35:44.215Z,17.90
2018-07-23T07:38:14.553Z,17.80
2018-07-23T07:40:44.921Z,17.80
2018-07-23T07:43:15.436Z,18.00
2018-07-23T07:45:44.876Z,17.90
2018-07-23T07:48:14.272Z,18.10
2018-07-23T07:50:44.645Z,18.20
2018-07-23T07:53:15.049Z,18.30
2018-07-23T07:55:44.640Z,18.40
2018-07-23T07:58:15.588Z,18.50
2018-07-23T08:00:45.399Z,18.70
2018-07-23T08:03:15.738Z,18.90
2018-07-23T08:05:46.168Z,19.10
2018-07-23T08:08:15.655Z,19.30
2018-07-23T08:10:45.708Z,19.50
2018-07-23T08:13:15.513Z,19.90
2018-07-23T08:15:45.876Z,20.20
2018-07-23T08:18:16.299Z,20.60
2018-07-23T08:20:46.734Z,20.80
2018-07-23T08:23:16.944Z,21.10
2018-07-23T08:25:47.592Z,21.10
2018-07-23T08:28:17.085Z,21.10
2018-07-23T08:30:46.503Z,21.20
2018-07-23T08:33:16.880Z,21.40
2018-07-23T08:35:46.364Z,21.40
2018-07-23T08:38:15.519Z,21.30
2018-07-23T08:40:46.087Z,21.50
2018-07-23T08:43:15.659Z,21.40
2018-07-23T08:45:45.030Z,21.50
2018-07-23T08:48:14.454Z,21.60
2018-07-23T08:50:43.877Z,21.50
2018-07-23T08:53:13.267Z,21.40
2018-07-23T08:55:45.251Z,21.20
2018-07-23T08:58:15.072Z,21.10
2018-07-23T09:00:45.512Z,21.20
2018-07-23T09:03:15.898Z,21.20
2018-07-23T09:05:47.378Z,21.30
2018-07-23T09:08:18.336Z,21.50
2018-07-23T09:10:48.304Z,21.90
2018-07-23T09:13:18.627Z,22.10
2018-07-23T09:15:48.148Z,22.20
2018-07-23T09:18:17.573Z,22.00
2018-07-23T09:20:47.932Z,21.70
2018-07-23T09:23:17.456Z,21.60
2018-07-23T09:25:48.630Z,21.30
2018-07-23T09:28:18.107Z,21.30
2018-07-23T09:30:54.750Z,21.30
2018-07-23T09:33:24.804Z,21.20
2018-07-23T09:35:56.680Z,21.20
2018-07-23T09:38:26.979Z,21.00
2018-07-23T09:40:56.469Z,20.70
2018-07-23T09:43:26.807Z,20.40
2018-07-23T09:45:56.327Z,20.10
2018-07-23T09:48:26.491Z,19.90
2018-07-23T09:50:56.207Z,19.80
2018-07-23T09:53:25.640Z,19.50
2018-07-23T09:55:55.986Z,19.40
2018-07-23T09:58:26.392Z,19.40
2018-07-23T10:01:01.868Z,19.40
2018-07-23T10:03:32.442Z,19.50
2018-07-23T10:06:02.711Z,19.40
2018-07-23T10:08:33.675Z,19.10
2018-07-23T10:11:04.151Z,18.90
2018-07-23T10:13:34.105Z,18.80
2018-07-23T10:16:03.508Z,18.60
2018-07-23T10:18:34.624Z,18.40
2018-07-23T10:21:04.355Z,18.50
2018-07-23T10:23:34.784Z,18.60
2018-07-23T10:26:05.074Z,18.60
2018-07-23T10:28:35.634Z,18.80
2018-07-23T10:31:05.052Z,19.20
2018-07-23T10:33:35.490Z,19.40
2018-07-23T10:36:05.869Z,19.60
2018-07-23T10:38:37.118Z,19.50
2018-07-23T10:41:06.816Z,19.30
2018-07-23T10:43:37.209Z,19.10
2018-07-23T10:46:07.494Z,19.10
2018-07-23T10:48:37.047Z,19.00
2018-07-23T10:51:06.460Z,19.10
2018-07-23T10:53:35.827Z,19.00
2018-07-23T10:56:05.291Z,19.10
2018-07-23T10:58:36.514Z,19.10
2018-07-23T11:01:08.151Z,19.00
2018-07-23T11:03:38.472Z,19.00
2018-07-23T11:06:08.011Z,19.00
2018-07-23T11:08:37.248Z,19.00
2018-07-23T11:11:06.136Z,19.30
2018-07-23T11:13:36.186Z,19.50
2018-07-23T11:16:05.666Z,19.60
2018-07-23T11:18:36.146Z,19.80
2018-07-23T11:21:07.088Z,20.00
2018-07-23T11:23:36.955Z,20.10
2018-07-23T11:26:06.076Z,20.20
2018-07-23T11:28:35.316Z,20.40
2018-07-23T11:31:04.207Z,20.70
2018-07-23T11:33:35.237Z,20.70
2018-07-23T11:36:05.077Z,20.90
2018-07-23T11:38:34.470Z,21.00
2018-07-23T11:41:04.831Z,20.80
2018-07-23T11:43:35.104Z,21.00
2018-07-23T11:46:05.742Z,21.00
2018-07-23T11:48:35.970Z,20.90
2018-07-23T11:51:06.606Z,20.90
2018-07-23T11:53:37.529Z,20.80
2018-07-23T11:56:08.659Z,20.70
2018-07-23T11:58:39.812Z,20.90
2018-07-23T12:01:10.235Z,20.80
2018-07-23T12:03:40.691Z,21.00
2018-07-23T12:06:10.910Z,21.30
2018-07-23T12:08:41.622Z,21.40
2018-07-23T12:11:11.951Z,21.50
2018-07-23T12:13:42.175Z,21.60
2018-07-23T12:16:13.897Z,21.50
2018-07-23T12:18:44.858Z,21.50
2018-07-23T12:21:14.742Z,21.50
2018-07-23T12:23:44.895Z,21.40
2018-07-23T12:26:15.604Z,21.10
2018-07-23T12:28:45.068Z,21.20
2018-07-23T12:31:15.332Z,21.30
2018-07-23T12:33:45.751Z,21.40
2018-07-23T12:36:15.308Z,21.50
2018-07-23T12:38:44.759Z,21.40
2018-07-23T12:41:14.141Z,21.60
2018-07-23T12:43:44.445Z,21.50
2018-07-23T12:46:14.002Z,21.40
2018-07-23T12:48:44.345Z,21.30
2018-07-23T12:51:14.773Z,21.40
2018-07-23T12:53:44.988Z,21.60
2018-07-23T12:56:15.632Z,21.40
2018-07-23T12:58:46.015Z,21.30
2018-07-23T13:01:15.541Z,21.20
2018-07-23T13:03:45.955Z,21.20
2018-07-23T13:06:15.384Z,21.10
2018-07-23T13:08:45.781Z,21.00
2018-07-23T13:11:16.187Z,20.80
2018-07-23T13:13:46.576Z,20.70
2018-07-23T13:16:16.095Z,20.50
2018-07-23T13:18:47.035Z,20.20
2018-07-23T13:21:17.994Z,20.10
2018-07-23T13:23:47.638Z,20.00
2018-07-23T13:26:17.632Z,19.70
2018-07-23T13:28:48.251Z,19.60
2018-07-23T13:31:17.667Z,19.50
2018-07-23T13:33:48.100Z,19.50
2018-07-23T13:36:18.361Z,19.60
2018-07-23T13:38:47.942Z,19.80
2018-07-23T13:41:18.321Z,19.60
2018-07-23T13:43:48.617Z,19.70
2018-07-23T13:46:19.153Z,19.60
2018-07-23T13:48:49.639Z,19.50
2018-07-23T13:51:19.088Z,19.60
2018-07-23T13:53:48.506Z,19.80
2018-07-23T13:56:19.295Z,19.80
2018-07-23T13:58:49.378Z,20.00
2018-07-23T14:01:19.860Z,20.20
2018-07-23T14:03:50.840Z,20.40
2018-07-23T14:06:20.691Z,20.90
2018-07-23T14:08:50.057Z,21.30
2018-07-23T14:11:19.489Z,21.70
2018-07-23T14:13:49.816Z,22.30
2018-07-23T14:16:20.311Z,22.80
2018-07-23T14:18:50.616Z,23.30
2018-07-23T14:21:21.077Z,23.50
2018-07-23T14:23:52.004Z,24.00
2018-07-23T14:26:21.971Z,24.00
2018-07-23T14:28:51.419Z,24.40
2018-07-23T14:31:21.577Z,24.60
2018-07-23T14:33:52.217Z,24.30
2018-07-23T14:36:21.708Z,24.60
2018-07-23T14:38:52.650Z,24.60
2018-07-23T14:41:22.623Z,24.70
2018-07-23T14:43:53.613Z,24.60
2018-07-23T14:46:24.135Z,24.60
2018-07-23T14:48:56.601Z,24.40
2018-07-23T14:51:27.743Z,24.20
2018-07-23T14:53:58.448Z,24.30
2018-07-23T14:56:28.919Z,25.00
2018-07-23T14:58:59.623Z,25.20
2018-07-23T15:01:30.021Z,25.60
2018-07-23T15:04:00.160Z,25.60
2018-07-23T15:06:29.881Z,25.70
2018-07-23T15:09:00.092Z,25.90
2018-07-23T15:11:30.427Z,25.70
2018-07-23T15:14:01.667Z,25.70
2018-07-23T15:16:31.566Z,25.60
2018-07-23T15:19:02.091Z,25.50
2018-07-23T15:21:32.445Z,25.40
2018-07-23T15:24:01.863Z,25.60
2018-07-23T15:26:32.801Z,25.50
2018-07-23T15:29:03.192Z,25.40
2018-07-23T15:31:34.112Z,25.30
2018-07-23T15:34:12.168Z,25.20
2018-07-23T15:36:42.731Z,25.10
2018-07-23T15:39:13.217Z,25.10
2018-07-23T15:41:43.870Z,25.00
2018-07-23T15:44:13.393Z,24.90
2018-07-23T15:46:49.541Z,25.00
2018-07-23T15:49:19.939Z,25.00
2018-07-23T15:51:50.997Z,24.90
2018-07-23T15:54:21.079Z,24.90
2018-07-23T15:56:52.260Z,24.70
2018-07-23T15:59:23.980Z,24.50
2018-07-23T16:01:54.365Z,24.50
2018-07-23T16:04:25.483Z,24.60
2018-07-23T16:06:55.207Z,24.60
2018-07-23T16:09:24.651Z,24.60
2018-07-23T16:11:55.000Z,24.50
2018-07-23T16:14:24.478Z,24.30
2018-07-23T16:16:53.312Z,24.30
2018-07-23T16:19:23.190Z,24.20
2018-07-23T16:21:52.736Z,24.20
2018-07-23T16:24:23.116Z,24.20
2018-07-23T16:26:53.471Z,24.20
2018-07-23T16:29:22.976Z,24.10
2018-07-23T16:31:52.390Z,24.00
2018-07-23T16:34:21.823Z,23.90
2018-07-23T16:36:51.252Z,23.70
2018-07-23T16:39:20.664Z,23.70
2018-07-23T16:41:51.007Z,23.60
2018-07-23T16:44:20.612Z,23.50
2018-07-23T16:46:49.404Z,23.40
2018-07-23T16:49:18.189Z,23.50
2018-07-23T16:51:49.145Z,23.40
2018-07-23T16:54:18.354Z,23.40
2018-07-23T16:56:47.591Z,23.20
2018-07-23T16:59:16.488Z,23.20
2018-07-23T17:01:46.353Z,23.10
2018-07-23T17:04:19.220Z,23.00
2018-07-23T17:06:48.076Z,22.90
2018-07-23T17:09:17.648Z,22.80
2018-07-23T17:11:47.864Z,22.50
2018-07-23T17:14:17.550Z,22.30
2018-07-23T17:16:47.711Z,22.10
2018-07-23T17:19:18.339Z,22.00
2018-07-23T17:21:47.828Z,21.80
2018-07-23T17:24:18.163Z,21.60
2018-07-23T17:26:48.407Z,21.40
2018-07-23T17:29:17.629Z,21.40
2018-07-23T17:31:46.433Z,21.30
2018-07-23T17:34:15.236Z,21.10
2018-07-23T17:36:44.182Z,21.10
2018-07-23T17:39:14.254Z,20.80
2018-07-23T17:41:44.215Z,20.60
2018-07-23T17:44:12.951Z,20.40
2018-07-23T17:46:42.043Z,20.20
2018-07-23T17:49:11.468Z,20.10
2018-07-23T17:51:41.805Z,19.90
2018-07-23T17:54:11.296Z,19.80
2018-07-23T17:56:41.596Z,19.50
2018-07-23T17:59:11.987Z,19.40
2018-07-23T18:01:42.251Z,19.20
2018-07-23T18:04:10.912Z,19.10
2018-07-23T18:06:40.687Z,19.00
2018-07-23T18:09:11.669Z,18.80
2018-07-23T18:11:40.573Z,18.70
2018-07-23T18:14:10.547Z,18.60
2018-07-23T18:16:40.093Z,18.50
2018-07-23T18:19:10.466Z,18.40
2018-07-23T18:21:40.919Z,18.30
2018-07-23T18:24:11.303Z,18.20
2018-07-23T18:26:41.549Z,18.10
2018-07-23T18:29:12.689Z,18.00
2018-07-23T18:31:42.052Z,17.90
2018-07-23T18:34:11.040Z,17.80
2018-07-23T18:36:39.870Z,17.70
2018-07-23T18:39:10.617Z,17.60
2018-07-23T18:41:39.859Z,17.50
2018-07-23T18:44:08.851Z,17.40
2018-07-23T18:46:37.661Z,17.30
2018-07-23T18:49:18.696Z,17.20
2018-07-23T18:51:50.054Z,17.20
2018-07-23T18:54:20.800Z,17.20
2018-07-23T18:56:52.867Z,17.20
2018-07-23T18:59:24.734Z,17.10
2018-07-23T19:01:58.679Z,17.10
2018-07-23T19:04:29.739Z,17.00
2018-07-23T19:06:59.614Z,16.90
2018-07-23T19:09:29.499Z,17.00
2018-07-23T19:11:58.920Z,16.90
2018-07-23T19:14:28.034Z,16.80
2018-07-23T19:16:57.726Z,16.80
2018-07-23T19:19:26.681Z,16.70
2018-07-23T19:21:56.361Z,16.70
2018-07-23T19:24:25.133Z,16.60
2018-07-23T19:26:54.531Z,16.50
2018-07-23T19:29:23.279Z,16.40
2018-07-23T19:31:52.132Z,16.40
2018-07-23T19:34:21.146Z,16.30
2018-07-23T19:36:50.295Z,16.20
2018-07-23T19:39:20.436Z,16.20
2018-07-23T19:41:49.451Z,16.20
2018-07-23T19:44:18.548Z,16.10
2018-07-23T19:46:48.903Z,16.10
2018-07-23T19:49:18.371Z,16.00
2018-07-23T19:51:47.830Z,16.00
2018-07-23T19:54:17.018Z,15.90
2018-07-23T19:56:45.905Z,15.90
2018-07-23T19:59:14.969Z,15.80
2018-07-23T20:01:45.027Z,15.80
2018-07-23T20:04:14.740Z,15.70
2018-07-23T20:06:44.154Z,15.60
2018-07-23T20:09:13.083Z,15.50
2018-07-23T20:11:42.139Z,15.40
2018-07-23T20:14:11.552Z,15.30
2018-07-23T20:16:41.654Z,15.30
2018-07-23T20:19:12.020Z,15.20
2018-07-23T20:21:41.547Z,15.10
2018-07-23T20:24:10.261Z,15.20
2018-07-23T20:26:39.051Z,15.20
2018-07-23T20:29:07.879Z,15.20
2018-07-23T20:31:36.732Z,15.20
2018-07-23T20:34:05.816Z,15.00
2018-07-23T20:36:34.537Z,15.00
2018-07-23T20:39:03.527Z,15.00
2018-07-23T20:41:33.144Z,15.00
2018-07-23T20:44:01.947Z,15.00
2018-07-23T20:46:31.589Z,15.00
2018-07-23T20:49:01.871Z,15.00
2018-07-23T20:51:31.368Z,15.00
2018-07-23T20:54:00.328Z,15.00
2018-07-23T20:56:29.042Z,15.00
2018-07-23T20:58:58.231Z,14.90
2018-07-23T21:01:27.193Z,14.90
2018-07-23T21:03:56.422Z,14.80
2018-07-23T21:06:25.419Z,14.80
2018-07-23T21:08:55.159Z,14.80
2018-07-23T21:11:25.401Z,14.80
2018-07-23T21:13:55.901Z,14.80
2018-07-23T21:16:24.632Z,14.70
2018-07-23T21:18:53.657Z,14.70
2018-07-23T21:21:22.447Z,14.70
2018-07-23T21:23:51.132Z,14.70
2018-07-23T21:26:19.814Z,14.60
2018-07-23T21:28:50.061Z,14.50
2018-07-23T21:31:19.471Z,14.50
2018-07-23T21:33:48.600Z,14.40
2018-07-23T21:36:18.552Z,14.40
2018-07-23T21:38:47.894Z,14.30
2018-07-23T21:41:17.371Z,14.30
2018-07-23T21:43:47.156Z,14.30
2018-07-23T21:46:16.067Z,14.40
2018-07-23T21:48:45.042Z,14.40
2018-07-23T21:51:13.774Z,14.40
2018-07-23T21:53:43.048Z,14.40
2018-07-23T21:56:13.387Z,14.40
2018-07-23T21:58:42.142Z,14.30
